createdAt,value
2018-09-03T00:01:07.413Z,74.00
2018-09-03T00:03:38.009Z,74.00
2018-09-03T00:06:07.985Z,74.00
2018-09-03T00:08:38.306Z,74.10
2018-09-03T00:11:08.224Z,74.10
2018-09-03T00:13:38.919Z,74.80
2018-09-03T00:16:09.963Z,74.20
2018-09-03T00:18:39.619Z,74.30
2018-09-03T00:21:08.878Z,74.50
2018-09-03T00:23:38.315Z,74.70
2018-09-03T00:26:07.771Z,74.90
2018-09-03T00:28:42.502Z,74.90
2018-09-03T00:31:16.969Z,74.90
2018-09-03T00:33:51.797Z,75.00
2018-09-03T00:36:28.964Z,75.00
2018-09-03T00:39:03.688Z,74.90
2018-09-03T00:43:40.659Z,74.90
2018-09-03T00:46:15.409Z,74.90
2018-09-03T00:48:45.638Z,74.80
2018-09-03T00:51:28.348Z,75.10
2018-09-03T00:53:58.353Z,75.20
2018-09-03T00:56:29.016Z,75.40
2018-09-03T00:58:59.164Z,75.40
2018-09-03T01:01:29.576Z,75.40
2018-09-03T01:03:59.208Z,75.30
2018-09-03T01:06:29.023Z,75.30
2018-09-03T01:08:59.490Z,75.20
2018-09-03T01:11:32.386Z,75.10
2018-09-03T01:14:02.157Z,75.10
2018-09-03T01:16:32.403Z,75.00
2018-09-03T01:19:02.092Z,75.20
2018-09-03T01:21:33.028Z,75.10
2018-09-03T01:24:03.358Z,75.00
2018-09-03T01:26:34.323Z,75.00
2018-09-03T01:29:03.997Z,75.10
2018-09-03T01:31:33.491Z,75.10
2018-09-03T01:34:03.651Z,75.20
2018-09-03T01:36:34.653Z,75.40
2018-09-03T01:39:05.028Z,75.40
2018-09-03T01:41:36.241Z,75.40
2018-09-03T01:44:06.298Z,75.50
2018-09-03T01:46:35.756Z,75.50
2018-09-03T01:49:05.502Z,75.40
2018-09-03T01:51:35.556Z,75.40
2018-09-03T01:54:06.190Z,75.40
2018-09-03T01:56:36.022Z,75.50
2018-09-03T01:59:05.571Z,75.50
2018-09-03T02:01:35.410Z,75.40
2018-09-03T02:04:04.911Z,75.50
2018-09-03T02:06:35.068Z,75.50
2018-09-03T02:09:07.555Z,75.50
2018-09-03T02:11:37.333Z,75.40
2018-09-03T02:14:07.993Z,75.30
2018-09-03T02:16:39.125Z,75.40
2018-09-03T02:19:09.694Z,75.20
2018-09-03T02:21:40.280Z,75.10
2018-09-03T02:24:09.879Z,75.20
2018-09-03T02:26:39.721Z,75.10
2018-09-03T02:29:09.626Z,75.10
2018-09-03T02:31:39.754Z,75.00
2018-09-03T02:34:10.200Z,75.00
2018-09-03T02:36:40.457Z,75.10
2018-09-03T02:39:10.409Z,75.10
2018-09-03T02:41:40.545Z,75.10
2018-09-03T02:44:10.188Z,75.10
2018-09-03T02:46:40.046Z,74.90
2018-09-03T02:49:09.872Z,75.00
2018-09-03T02:51:41.023Z,75.00
2018-09-03T02:54:10.794Z,75.00
2018-09-03T02:56:41.174Z,75.00
2018-09-03T02:59:10.862Z,75.10
2018-09-03T03:01:41.464Z,75.00
2018-09-03T03:04:14.200Z,75.00
2018-09-03T03:06:44.561Z,75.00
2018-09-03T03:09:14.148Z,75.00
2018-09-03T03:11:45.850Z,75.10
2018-09-03T03:14:15.854Z,75.00
2018-09-03T03:16:45.866Z,74.90
2018-09-03T03:19:15.793Z,74.90
2018-09-03T03:21:46.724Z,74.80
2018-09-03T03:24:16.614Z,74.90
2018-09-03T03:26:47.020Z,74.80
2018-09-03T03:29:16.794Z,74.90
2018-09-03T03:31:46.941Z,74.90
2018-09-03T03:34:16.775Z,74.90
2018-09-03T03:36:46.508Z,74.90
2018-09-03T03:39:20.518Z,74.90
2018-09-03T03:41:50.940Z,74.90
2018-09-03T03:44:20.549Z,74.90
2018-09-03T03:46:50.669Z,75.00
2018-09-03T03:49:20.211Z,75.20
2018-09-03T03:51:49.687Z,75.40
2018-09-03T03:54:19.179Z,75.80
2018-09-03T03:56:50.587Z,76.10
2018-09-03T03:59:19.977Z,76.10
2018-09-03T04:01:50.094Z,76.60
2018-09-03T04:04:20.044Z,76.80
2018-09-03T04:06:50.015Z,76.90
2018-09-03T04:09:19.994Z,77.00
2018-09-03T04:11:49.954Z,76.90
2018-09-03T04:14:20.505Z,76.80
2018-09-03T04:16:50.824Z,76.70
2018-09-03T04:19:20.984Z,76.50
2018-09-03T04:21:50.758Z,76.50
2018-09-03T04:24:20.454Z,76.40
2018-09-03T04:26:50.362Z,76.30
2018-09-03T04:29:20.441Z,76.20
2018-09-03T04:31:51.101Z,76.20
2018-09-03T04:34:20.764Z,76.20
2018-09-03T04:36:50.134Z,76.10
2018-09-03T04:39:19.884Z,76.10
2018-09-03T04:41:49.454Z,76.00
2018-09-03T04:44:20.628Z,75.80
2018-09-03T04:46:51.751Z,75.70
2018-09-03T04:49:21.426Z,75.70
2018-09-03T04:51:51.386Z,75.60
2018-09-03T04:54:21.148Z,75.60
2018-09-03T04:56:50.901Z,76.40
2018-09-03T04:59:21.011Z,75.60
2018-09-03T05:01:52.051Z,75.60
2018-09-03T05:04:21.566Z,75.60
2018-09-03T05:06:52.027Z,75.50
2018-09-03T05:09:22.639Z,75.40
2018-09-03T05:11:53.171Z,75.40
2018-09-03T05:14:23.081Z,75.30
2018-09-03T05:16:52.993Z,75.30
2018-09-03T05:19:22.796Z,75.20
2018-09-03T05:21:53.879Z,75.20
2018-09-03T05:24:23.039Z,75.10
2018-09-03T05:26:53.218Z,75.10
2018-09-03T05:29:23.511Z,75.10
2018-09-03T05:31:55.779Z,75.20
2018-09-03T05:34:25.794Z,75.10
2018-09-03T05:36:57.326Z,75.00
2018-09-03T05:39:26.898Z,74.90
2018-09-03T05:41:56.977Z,75.00
2018-09-03T05:44:26.296Z,74.90
2018-09-03T05:46:59.107Z,74.80
2018-09-03T05:49:29.002Z,74.60
2018-09-03T05:51:58.791Z,74.50
2018-09-03T05:54:28.160Z,74.50
2018-09-03T05:56:59.473Z,74.50
2018-09-03T06:01:52.194Z,74.50
2018-09-03T06:04:22.454Z,74.50
2018-09-03T06:06:52.027Z,74.60
2018-09-03T06:09:23.779Z,74.60
2018-09-03T06:11:54.231Z,74.50
2018-09-03T06:14:24.737Z,74.50
2018-09-03T06:16:54.502Z,74.60
2018-09-03T06:19:25.075Z,71.90
2018-09-03T06:21:54.454Z,72.30
2018-09-03T06:24:24.306Z,72.10
2018-09-03T06:26:54.693Z,72.80
2018-09-03T06:29:25.462Z,73.10
2018-09-03T06:31:55.824Z,73.00
2018-09-03T06:34:25.774Z,72.80
2018-09-03T06:36:55.477Z,72.80
2018-09-03T06:39:25.711Z,72.70
2018-09-03T06:41:55.315Z,72.40
2018-09-03T06:44:25.850Z,72.20
2018-09-03T06:46:55.334Z,71.80
2018-09-03T06:49:24.906Z,72.30
2018-09-03T06:51:54.822Z,72.20
2018-09-03T06:54:25.358Z,71.90
2018-09-03T06:56:55.844Z,71.70
2018-09-03T06:59:26.139Z,71.50
2018-09-03T07:01:56.404Z,71.20
2018-09-03T07:04:26.886Z,71.00
2018-09-03T07:06:56.280Z,70.60
2018-09-03T07:09:26.760Z,70.60
2018-09-03T07:12:02.330Z,69.10
2018-09-03T07:14:37.675Z,69.20
2018-09-03T07:17:07.823Z,69.10
2018-09-03T07:19:37.473Z,68.70
2018-09-03T07:22:07.204Z,68.50
2018-09-03T07:24:37.633Z,68.30
2018-09-03T07:27:07.857Z,67.90
2018-09-03T07:29:39.928Z,67.80
2018-09-03T07:32:10.545Z,66.40
2018-09-03T07:34:40.439Z,65.90
2018-09-03T07:37:10.649Z,66.10
2018-09-03T07:43:01.847Z,63.00
2018-09-03T07:45:34.442Z,64.70
2018-09-03T07:48:05.061Z,65.30
2018-09-03T07:50:42.023Z,64.50
2018-09-03T07:53:18.779Z,64.60
2018-09-03T07:55:49.393Z,65.00
2018-09-03T07:58:20.119Z,65.10
2018-09-03T08:00:50.289Z,65.30
2018-09-03T08:03:20.523Z,65.50
2018-09-03T08:05:51.249Z,64.70
2018-09-03T08:08:21.533Z,65.10
2018-09-03T08:10:51.697Z,64.40
2018-09-03T08:13:27.424Z,64.40
2018-09-03T08:15:57.658Z,64.10
2018-09-03T08:18:27.792Z,63.50
2018-09-03T08:20:58.413Z,63.30
2018-09-03T08:23:28.645Z,62.70
2018-09-03T08:25:58.680Z,62.50
2018-09-03T08:28:28.780Z,62.70
2018-09-03T08:30:59.001Z,62.70
2018-09-03T08:33:34.885Z,62.00
2018-09-03T08:36:12.092Z,61.80
2018-09-03T08:38:46.772Z,61.50
2018-09-03T08:41:17.108Z,60.70
2018-09-03T08:43:47.219Z,60.70
2018-09-03T08:46:18.192Z,60.70
2018-09-03T08:48:48.702Z,60.40
2018-09-03T08:51:19.289Z,60.30
2018-09-03T08:53:49.586Z,59.70
2018-09-03T08:56:19.844Z,59.50
2018-09-03T08:58:49.967Z,59.30
2018-09-03T09:01:20.118Z,59.60
2018-09-03T09:03:50.850Z,59.50
2018-09-03T09:06:20.949Z,59.70
2018-09-03T09:08:51.580Z,59.60
2018-09-03T09:11:21.700Z,59.10
2018-09-03T09:13:51.911Z,59.00
2018-09-03T09:16:23.193Z,58.80
2018-09-03T09:18:53.305Z,58.90
2018-09-03T09:21:24.130Z,58.70
2018-09-03T09:23:54.407Z,58.60
2018-09-03T09:26:25.005Z,58.40
2018-09-03T09:28:55.612Z,58.20
2018-09-03T09:31:25.726Z,58.40
2018-09-03T09:33:55.918Z,58.70
2018-09-03T09:36:26.678Z,59.10
2018-09-03T09:38:57.002Z,59.40
2018-09-03T09:41:27.494Z,59.20
2018-09-03T09:43:57.660Z,58.70
2018-09-03T09:46:29.856Z,58.80
2018-09-03T09:49:04.840Z,57.90
2018-09-03T09:51:38.835Z,58.40
2018-09-03T09:54:13.586Z,57.30
2018-09-03T09:56:46.562Z,57.90
2018-09-03T09:59:17.001Z,57.00
2018-09-03T10:01:47.425Z,57.40
2018-09-03T10:04:18.226Z,57.30
2018-09-03T10:06:48.931Z,57.90
2018-09-03T10:09:19.023Z,57.50
2018-09-03T10:11:50.097Z,57.70
2018-09-03T10:14:20.101Z,57.80
2018-09-03T10:16:50.317Z,56.90
2018-09-03T10:19:20.507Z,57.20
2018-09-03T10:21:53.076Z,57.00
2018-09-03T10:24:24.031Z,57.20
2018-09-03T10:26:54.780Z,56.90
2018-09-03T10:29:25.571Z,57.00
2018-09-03T10:31:55.990Z,56.40
2018-09-03T10:34:26.949Z,56.00
2018-09-03T10:36:56.992Z,56.20
2018-09-03T10:39:27.908Z,56.90
2018-09-03T10:41:58.795Z,56.90
2018-09-03T10:44:29.086Z,56.10
2018-09-03T10:46:59.176Z,56.10
2018-09-03T10:49:30.238Z,55.10
2018-09-03T10:52:00.389Z,53.70
2018-09-03T10:54:30.504Z,54.30
2018-09-03T10:57:05.402Z,54.30
2018-09-03T10:59:36.834Z,55.10
2018-09-03T11:02:10.309Z,56.10
2018-09-03T11:04:43.698Z,56.00
2018-09-03T11:07:14.388Z,55.90
2018-09-03T11:09:45.227Z,55.90
2018-09-03T11:12:16.142Z,55.20
2018-09-03T11:14:46.496Z,54.70
2018-09-03T11:17:17.131Z,54.70
2018-09-03T11:19:52.621Z,52.10
2018-09-03T11:22:23.200Z,53.30
2018-09-03T11:24:53.526Z,53.40
2018-09-03T11:27:24.079Z,53.60
2018-09-03T11:29:54.412Z,54.10
2018-09-03T11:32:25.002Z,54.30
2018-09-03T11:34:55.272Z,54.20
2018-09-03T11:37:26.472Z,53.20
2018-09-03T11:39:56.574Z,53.40
2018-09-03T11:42:28.285Z,51.80
2018-09-03T11:44:58.264Z,52.20
2018-09-03T11:47:28.408Z,52.20
2018-09-03T11:49:59.278Z,53.20
2018-09-03T11:52:30.244Z,53.40
2018-09-03T11:55:00.273Z,51.90
2018-09-03T11:57:30.549Z,52.50
2018-09-03T12:00:01.459Z,51.30
2018-09-03T12:02:50.173Z,50.90
2018-09-03T12:05:20.279Z,52.00
2018-09-03T12:07:50.453Z,52.40
2018-09-03T12:10:20.671Z,53.00
2018-09-03T12:12:50.874Z,52.00
2018-09-03T12:15:39.841Z,51.70
2018-09-03T12:18:11.018Z,51.90
2018-09-03T12:20:42.340Z,51.20
2018-09-03T12:23:12.663Z,52.00
2018-09-03T12:25:43.052Z,51.10
2018-09-03T12:28:13.629Z,50.40
2018-09-03T12:30:44.366Z,49.10
2018-09-03T12:33:14.867Z,49.70
2018-09-03T12:35:46.109Z,50.30
2018-09-03T12:38:17.089Z,49.60
2018-09-03T12:40:47.992Z,50.30
2018-09-03T12:43:18.440Z,49.70
2018-09-03T12:45:54.106Z,50.50
2018-09-03T12:48:24.209Z,51.00
2018-09-03T12:50:54.705Z,50.90
2018-09-03T12:53:25.163Z,50.60
2018-09-03T12:55:55.382Z,50.80
2018-09-03T12:58:25.793Z,51.10
2018-09-03T13:00:56.194Z,51.40
2018-09-03T13:03:26.636Z,50.90
2018-09-03T13:05:58.839Z,52.70
2018-09-03T13:08:30.469Z,51.30
2018-09-03T13:11:02.809Z,51.80
2018-09-03T13:13:35.064Z,51.40
2018-09-03T13:16:05.989Z,50.70
2018-09-03T13:18:36.850Z,51.00
2018-09-03T13:21:07.614Z,49.90
2018-09-03T13:23:38.481Z,49.60
2018-09-03T13:26:10.335Z,50.00
2018-09-03T13:28:44.744Z,49.80
2018-09-03T13:31:15.263Z,49.30
2018-09-03T13:33:46.164Z,50.10
2018-09-03T13:36:16.288Z,50.50
2018-09-03T13:38:46.609Z,49.60
2018-09-03T13:41:27.065Z,49.20
2018-09-03T13:43:57.334Z,48.70
2018-09-03T13:46:27.665Z,48.60
2018-09-03T13:48:57.799Z,47.90
2018-09-03T13:51:28.524Z,48.20
2018-09-03T13:53:58.592Z,48.90
2018-09-03T13:56:29.506Z,48.90
2018-09-03T13:58:59.821Z,49.60
2018-09-03T14:01:30.893Z,49.60
2018-09-03T14:04:01.064Z,50.00
2018-09-03T14:06:31.515Z,47.70
2018-09-03T14:09:02.114Z,48.50
2018-09-03T14:11:33.234Z,48.00
2018-09-03T14:14:33.083Z,47.10
2018-09-03T14:17:04.771Z,46.50
2018-09-03T14:19:35.680Z,48.10
2018-09-03T14:22:07.391Z,48.50
2018-09-03T14:24:37.398Z,48.60
2018-09-03T14:27:07.838Z,47.80
2018-09-03T14:29:38.768Z,48.90
2018-09-03T14:32:10.685Z,49.00
2018-09-03T14:34:41.305Z,48.60
2018-09-03T14:37:11.952Z,49.10
2018-09-03T14:39:41.942Z,47.70
2018-09-03T14:42:12.748Z,48.30
2018-09-03T14:44:43.236Z,49.00
2018-09-03T14:47:13.621Z,50.50
2018-09-03T14:49:44.018Z,50.30
2018-09-03T14:52:15.179Z,50.30
2018-09-03T14:54:45.201Z,51.10
2018-09-03T14:57:15.694Z,51.70
2018-09-03T14:59:46.050Z,52.00
2018-09-03T15:02:16.906Z,52.30
2018-09-03T15:04:48.317Z,52.90
2018-09-03T15:07:18.744Z,52.30
2018-09-03T15:09:49.336Z,51.70
2018-09-03T15:12:20.444Z,51.40
2018-09-03T15:14:53.549Z,50.70
2018-09-03T15:17:23.999Z,50.70
2018-09-03T15:19:54.608Z,49.90
2018-09-03T15:22:25.053Z,49.30
2018-09-03T15:24:55.206Z,50.40
2018-09-03T15:27:25.403Z,50.30
2018-09-03T15:29:55.563Z,50.30
2018-09-03T15:32:25.836Z,50.10
2018-09-03T15:34:56.748Z,49.80
2018-09-03T15:37:27.541Z,50.10
2018-09-03T15:39:57.698Z,50.90
2018-09-03T15:42:28.896Z,51.00
2018-09-03T15:44:59.679Z,49.30
2018-09-03T15:47:29.943Z,49.50
2018-09-03T15:50:00.875Z,49.60
2018-09-03T15:52:31.425Z,49.60
2018-09-03T15:55:01.653Z,50.10
2018-09-03T15:57:31.732Z,49.40
2018-09-03T16:00:02.135Z,50.10
2018-09-03T16:02:35.368Z,50.10
2018-09-03T16:05:12.561Z,51.10
2018-09-03T16:07:47.985Z,50.80
2018-09-03T16:10:18.362Z,52.00
2018-09-03T16:12:49.070Z,51.90
2018-09-03T16:15:19.444Z,51.50
2018-09-03T16:17:49.533Z,51.80
2018-09-03T16:20:19.504Z,51.20
2018-09-03T16:22:49.653Z,51.40
2018-09-03T16:25:19.992Z,51.50
2018-09-03T16:27:50.495Z,51.50
2018-09-03T16:30:21.344Z,52.10
2018-09-03T16:32:51.599Z,51.30
2018-09-03T16:35:21.762Z,51.60
2018-09-03T16:37:51.865Z,51.80
2018-09-03T16:40:22.173Z,52.10
2018-09-03T16:42:52.162Z,52.00
2018-09-03T16:45:22.446Z,52.70
2018-09-03T16:47:52.994Z,52.20
2018-09-03T16:50:24.380Z,52.30
2018-09-03T16:52:55.106Z,51.70
2018-09-03T16:55:25.294Z,51.80
2018-09-03T16:57:55.269Z,51.70
2018-09-03T17:00:25.529Z,52.80
2018-09-03T17:02:56.305Z,53.10
2018-09-03T17:05:26.536Z,53.10
2018-09-03T17:07:56.903Z,53.50
2018-09-03T17:10:27.664Z,53.50
2018-09-03T17:12:58.733Z,54.10
2018-09-03T17:15:28.864Z,54.10
2018-09-03T17:17:59.274Z,54.70
2018-09-03T17:20:30.267Z,55.60
2018-09-03T17:23:00.611Z,56.20
2018-09-03T17:25:30.765Z,56.10
2018-09-03T17:28:00.790Z,56.30
2018-09-03T17:30:30.918Z,56.00
2018-09-03T17:33:00.913Z,56.20
2018-09-03T17:35:36.261Z,57.00
2018-09-03T17:38:08.078Z,57.10
2018-09-03T17:40:38.290Z,56.90
2018-09-03T17:43:13.009Z,56.90
2018-09-03T17:45:43.463Z,57.10
2018-09-03T17:48:13.899Z,57.20
2018-09-03T17:50:44.431Z,57.20
2018-09-03T17:53:14.446Z,57.30
2018-09-03T17:55:44.800Z,57.60
2018-09-03T17:58:14.929Z,57.80
2018-09-03T18:00:45.355Z,58.10
2018-09-03T18:03:16.181Z,58.20
2018-09-03T18:05:46.861Z,58.70
2018-09-03T18:08:17.213Z,58.70
2018-09-03T18:10:47.368Z,58.50
2018-09-03T18:13:17.596Z,58.60
2018-09-03T18:15:47.726Z,59.00
2018-09-03T18:18:17.676Z,59.20
2018-09-03T18:20:47.961Z,60.10
2018-09-03T18:23:19.043Z,60.20
2018-09-03T18:25:49.407Z,61.10
2018-09-03T18:28:19.831Z,62.20
2018-09-03T18:30:50.142Z,62.80
2018-09-03T18:33:20.402Z,63.30
2018-09-03T18:35:50.588Z,63.90
2018-09-03T18:38:20.769Z,63.90
2018-09-03T18:40:51.341Z,63.70
2018-09-03T18:43:21.356Z,64.00
2018-09-03T18:45:51.339Z,64.00
2018-09-03T18:48:21.471Z,63.90
2018-09-03T18:50:51.637Z,63.30
2018-09-03T18:53:22.073Z,63.40
2018-09-03T18:55:53.011Z,63.00
2018-09-03T18:58:23.078Z,63.00
2018-09-03T19:00:53.019Z,62.80
2018-09-03T19:03:22.966Z,63.00
2018-09-03T19:05:52.883Z,63.20
2018-09-03T19:08:23.227Z,64.00
2018-09-03T19:10:54.214Z,65.00
2018-09-03T19:13:24.617Z,65.00
2018-09-03T19:15:54.702Z,65.10
2018-09-03T19:18:24.816Z,65.20
2018-09-03T19:20:54.865Z,64.90
2018-09-03T19:23:34.964Z,65.00
2018-09-03T19:26:05.593Z,65.30
2018-09-03T19:28:35.828Z,65.70
2018-09-03T19:31:06.644Z,66.70
2018-09-03T19:33:37.668Z,65.70
2018-09-03T19:36:08.837Z,66.50
2018-09-03T19:38:39.115Z,66.60
2018-09-03T19:41:09.253Z,67.00
2018-09-03T19:43:39.323Z,67.10
2018-09-03T19:46:10.014Z,66.80
2018-09-03T19:48:41.580Z,66.80
2018-09-03T19:51:11.852Z,66.90
2018-09-03T19:53:42.193Z,67.10
2018-09-03T19:56:12.399Z,67.20
2018-09-03T19:58:48.739Z,67.40
2018-09-03T20:01:18.918Z,67.50
2018-09-03T20:03:49.461Z,67.70
2018-09-03T20:06:20.163Z,67.40
2018-09-03T20:08:50.911Z,67.50
2018-09-03T20:11:21.018Z,67.90
2018-09-03T20:13:51.918Z,68.20
2018-09-03T20:16:22.135Z,68.40
2018-09-03T20:18:52.504Z,68.50
2018-09-03T20:21:23.117Z,68.60
2018-09-03T20:23:53.951Z,68.50
2018-09-03T20:26:24.331Z,68.90
2018-09-03T20:28:54.802Z,68.90
2018-09-03T20:31:24.895Z,68.60
2018-09-03T20:33:55.164Z,68.30
2018-09-03T20:36:25.614Z,68.30
2018-09-03T20:38:55.640Z,68.30
2018-09-03T20:41:25.664Z,68.80
2018-09-03T20:43:55.715Z,68.90
2018-09-03T20:46:27.340Z,69.60
2018-09-03T20:48:59.247Z,69.70
2018-09-03T20:51:30.700Z,70.00
2018-09-03T20:54:01.999Z,69.80
2018-09-03T20:56:33.464Z,69.80
2018-09-03T20:59:06.370Z,69.90
2018-09-03T21:01:39.524Z,69.90
2018-09-03T21:04:10.978Z,70.10
2018-09-03T21:09:56.807Z,70.40
2018-09-03T21:12:30.335Z,70.20
2018-09-03T21:15:03.641Z,70.40
2018-09-03T21:17:35.612Z,70.50
2018-09-03T21:20:07.870Z,70.30
2018-09-03T21:22:39.454Z,71.20
2018-09-03T21:25:11.433Z,70.40
2018-09-03T21:27:47.376Z,70.30
2018-09-03T21:30:18.989Z,70.50
2018-09-03T21:32:57.151Z,70.60
2018-09-03T21:35:34.058Z,70.70
2018-09-03T21:38:06.122Z,70.70
2018-09-03T21:40:38.905Z,70.40
2018-09-03T21:43:10.255Z,70.60
2018-09-03T21:45:41.857Z,71.70
2018-09-03T21:48:12.834Z,70.70
2018-09-03T21:50:51.259Z,70.60
2018-09-03T21:53:22.430Z,70.70
2018-09-03T21:55:54.054Z,70.70
2018-09-03T21:58:41.267Z,70.80
2018-09-03T22:01:13.392Z,71.60
2018-09-03T22:03:45.675Z,71.40
2018-09-03T22:06:18.586Z,71.50
2018-09-03T22:08:49.546Z,71.60
2018-09-03T22:11:21.473Z,71.50
2018-09-03T22:13:59.003Z,71.50
2018-09-03T22:16:30.302Z,71.40
2018-09-03T22:19:01.516Z,71.40
2018-09-03T22:21:33.117Z,71.40
2018-09-03T22:24:04.315Z,71.40
2018-09-03T22:26:36.022Z,71.20
2018-09-03T22:29:10.433Z,71.20
2018-09-03T22:31:41.844Z,71.20
2018-09-03T22:34:14.468Z,71.90
2018-09-03T22:36:48.467Z,71.00
2018-09-03T22:39:19.408Z,71.10
2018-09-03T22:41:50.651Z,71.20
2018-09-03T22:44:34.789Z,71.40
2018-09-03T22:47:06.775Z,71.40
2018-09-03T22:49:38.533Z,71.50
2018-09-03T22:52:11.276Z,71.60
2018-09-03T22:54:42.293Z,71.90
2018-09-03T22:57:13.665Z,71.80
2018-09-03T22:59:45.108Z,71.70
2018-09-03T23:02:17.809Z,71.70
2018-09-03T23:04:48.916Z,71.80
2018-09-03T23:10:08.066Z,71.60
2018-09-03T23:12:39.800Z,71.60
2018-09-03T23:15:12.349Z,71.60
2018-09-03T23:17:43.495Z,71.70
2018-09-03T23:20:14.718Z,71.60
2018-09-03T23:22:45.761Z,71.70
2018-09-03T23:25:18.916Z,71.50
2018-09-03T23:27:51.241Z,71.30
2018-09-03T23:30:22.876Z,71.60
2018-09-03T23:32:54.309Z,71.80
2018-09-03T23:35:27.466Z,71.70
2018-09-03T23:37:58.626Z,71.70
2018-09-03T23:40:32.420Z,71.40
2018-09-03T23:43:04.002Z,71.40
2018-09-03T23:45:35.786Z,71.40
2018-09-03T23:48:13.315Z,71.30
2018-09-03T23:50:44.534Z,71.30
2018-09-03T23:53:16.071Z,71.10
2018-09-03T23:55:48.012Z,71.40
2018-09-03T23:58:19.759Z,71.50
